Time;durP1;ratioP1;P1;durP2;ratioP2;P2;SDS_P1;SDS_P2;PMS_P1;PMS_P2;Temp;Humidity;BMP_temperature;BMP_pressure;BME280_temperature;BME280_humidity;BME280_pressure;Samples;Min_cycle;Max_cycle;Signal;HPM_P1;HPM_P2
2023/06/15 00:00:12;;;;;;;;;;;20.50;52.10;;;;;;8433531;28;20023;-71
2023/06/15 00:04:15;;;;;;;;;;;20.50;52.10;;;;;;8416870;28;20388;-72
2023/06/15 00:08:16;;;;;;;;;;;20.50;52.20;;;;;;8431012;28;19923;-71
2023/06/15 00:12:19;;;;;;;;;;;20.50;52.20;;;;;;8418677;28;19935;-71
2023/06/15 00:16:20;;;;;;;;;;;20.50;52.40;;;;;;8418006;28;19928;-71
2023/06/15 00:20:28;;;;;;;;;;;20.50;52.40;;;;;;8426123;28;19951;-72
2023/06/15 00:24:30;;;;;;;;;;;20.50;52.50;;;;;;8418105;28;19996;-72
2023/06/15 00:28:32;;;;;;;;;;;20.40;52.60;;;;;;8427003;28;19966;-71
2023/06/15 00:32:34;;;;;;;;;;;20.40;52.90;;;;;;8423124;28;19924;-71
2023/06/15 00:36:36;;;;;;;;;;;20.40;52.90;;;;;;8427849;28;19943;-72
2023/06/15 00:40:38;;;;;;;;;;;20.30;52.90;;;;;;8421521;28;20019;-71
2023/06/15 00:44:40;;;;;;;;;;;20.30;53.10;;;;;;8413178;28;20019;-71
2023/06/15 00:48:42;;;;;;;;;;;20.30;53.40;;;;;;8434020;28;20324;-71
2023/06/15 00:52:45;;;;;;;;;;;20.20;53.50;;;;;;8412807;28;19935;-71
2023/06/15 00:56:47;;;;;;;;;;;20.20;53.60;;;;;;8419997;28;19924;-71
2023/06/15 01:00:49;;;;;;;;;;;20.20;53.80;;;;;;8434300;28;19924;-71
2023/06/15 01:04:51;;;;;;;;;;;20.20;54.10;;;;;;8404662;28;19933;-71
2023/06/15 01:08:53;;;;;;;;;;;20.10;54.00;;;;;;8420345;28;20390;-72
2023/06/15 01:12:55;;;;;;;;;;;20.10;54.40;;;;;;8430342;28;20289;-72
2023/06/15 01:16:58;;;;;;;;;;;20.10;54.80;;;;;;8418397;28;19932;-71
2023/06/15 01:21:02;;;;;;;;;;;20.10;55.00;;;;;;8432164;28;19928;-70
2023/06/15 01:25:08;;;;;;;;;;;20.10;55.00;;;;;;8429011;28;19924;-71
2023/06/15 01:29:10;;;;;;;;;;;20.00;54.90;;;;;;8434523;28;19928;-71
2023/06/15 01:33:12;;;;;;;;;;;20.00;54.90;;;;;;8424055;28;19946;-70
2023/06/15 01:37:14;;;;;;;;;;;20.00;55.50;;;;;;8432990;28;19923;-71
2023/06/15 01:41:16;;;;;;;;;;;20.00;55.30;;;;;;8425886;28;20376;-71
2023/06/15 01:45:19;;;;;;;;;;;19.90;55.80;;;;;;8426716;28;20292;-71
2023/06/15 01:49:21;;;;;;;;;;;19.90;55.80;;;;;;8430998;28;19980;-71
2023/06/15 01:53:22;;;;;;;;;;;19.90;56.10;;;;;;8436797;28;19923;-71
2023/06/15 01:57:24;;;;;;;;;;;19.90;56.30;;;;;;8435318;28;20298;-72
2023/06/15 02:01:35;;;;;;;;;;;19.80;56.00;;;;;;8427024;28;19976;-71
2023/06/15 02:05:39;;;;;;;;;;;19.80;56.30;;;;;;8435395;28;20295;-71
2023/06/15 02:09:41;;;;;;;;;;;19.80;56.80;;;;;;8429811;28;19924;-71
2023/06/15 02:13:42;;;;;;;;;;;19.80;56.70;;;;;;8424120;28;19924;-71
2023/06/15 02:17:44;;;;;;;;;;;19.70;56.70;;;;;;8424007;28;19945;-71
2023/06/15 02:21:49;;;;;;;;;;;19.70;57.10;;;;;;8429980;28;19932;-70
2023/06/15 02:25:51;;;;;;;;;;;19.70;57.30;;;;;;8427158;28;19978;-71
2023/06/15 02:29:53;;;;;;;;;;;19.70;57.00;;;;;;8410951;28;20277;-70
2023/06/15 02:33:55;;;;;;;;;;;19.60;57.10;;;;;;8422566;28;19971;-70
2023/06/15 02:37:56;;;;;;;;;;;19.60;57.30;;;;;;8426280;28;20359;-71
2023/06/15 02:41:58;;;;;;;;;;;19.60;57.30;;;;;;8430789;28;19979;-70
2023/06/15 02:46:00;;;;;;;;;;;19.50;57.70;;;;;;8425804;28;19924;-71
2023/06/15 02:50:05;;;;;;;;;;;19.40;57.70;;;;;;8424343;27;19928;-71
2023/06/15 02:54:06;;;;;;;;;;;19.40;58.00;;;;;;8432892;28;19924;-71
2023/06/15 02:58:08;;;;;;;;;;;19.40;58.00;;;;;;8427323;28;20600;-71
2023/06/15 03:02:10;;;;;;;;;;;19.30;58.50;;;;;;8420025;28;19998;-71
2023/06/15 03:06:14;;;;;;;;;;;19.30;59.20;;;;;;8426519;28;20236;-70
2023/06/15 03:10:16;;;;;;;;;;;19.20;58.40;;;;;;8412243;28;19932;-70
2023/06/15 03:14:20;;;;;;;;;;;19.20;58.40;;;;;;8403271;28;19932;-70
2023/06/15 03:18:22;;;;;;;;;;;19.10;58.00;;;;;;8422822;28;19935;-70
2023/06/15 03:22:25;;;;;;;;;;;19.00;58.20;;;;;;8419718;28;19935;-71
2023/06/15 03:26:26;;;;;;;;;;;18.80;58.70;;;;;;8421369;28;19924;-70
2023/06/15 03:30:29;;;;;;;;;;;18.70;58.90;;;;;;8420404;28;20027;-71
2023/06/15 03:34:30;;;;;;;;;;;18.70;58.50;;;;;;8417191;28;20334;-71
2023/06/15 03:38:32;;;;;;;;;;;18.50;58.70;;;;;;8418200;28;19928;-70
2023/06/15 03:42:34;;;;;;;;;;;18.40;58.80;;;;;;8424930;28;20299;-71
2023/06/15 03:46:35;;;;;;;;;;;18.30;59.00;;;;;;8426375;27;19924;-71
2023/06/15 03:50:37;;;;;;;;;;;18.20;59.10;;;;;;8428267;28;19966;-71
2023/06/15 03:54:39;;;;;;;;;;;18.10;59.40;;;;;;8420058;28;19928;-71
2023/06/15 03:58:40;;;;;;;;;;;18.00;59.70;;;;;;8423811;28;19939;-70
2023/06/15 04:02:42;;;;;;;;;;;18.00;60.00;;;;;;8434496;28;19932;-71
2023/06/15 04:06:47;;;;;;;;;;;17.90;60.00;;;;;;8429073;28;19932;-71
2023/06/15 04:10:49;;;;;;;;;;;17.90;59.90;;;;;;8410694;28;19924;-70
2023/06/15 04:14:50;;;;;;;;;;;17.80;60.70;;;;;;8424750;28;19939;-70
2023/06/15 04:18:52;;;;;;;;;;;17.80;60.50;;;;;;8429519;28;19928;-71
2023/06/15 04:22:53;;;;;;;;;;;17.80;60.80;;;;;;8425773;28;20299;-73
2023/06/15 04:26:57;;;;;;;;;;;17.80;60.80;;;;;;8428316;28;20301;-71
2023/06/15 04:31:09;;;;;;;;;;;17.90;61.60;;;;;;8428754;28;20379;-70
2023/06/15 04:35:16;;;;;;;;;;;17.90;61.60;;;;;;8436813;28;19974;-70
2023/06/15 04:39:18;;;;;;;;;;;17.90;63.20;;;;;;8434906;28;19949;-71
2023/06/15 04:43:20;;;;;;;;;;;17.90;62.70;;;;;;8425115;28;19939;-71
2023/06/15 04:47:22;;;;;;;;;;;18.00;62.60;;;;;;8444419;28;19938;-70
2023/06/15 04:51:24;;;;;;;;;;;18.00;62.40;;;;;;8448585;28;19969;-70
2023/06/15 04:55:26;;;;;;;;;;;18.10;63.60;;;;;;8446002;28;19928;-71
2023/06/15 04:59:27;;;;;;;;;;;18.20;63.80;;;;;;8431778;27;19977;-70
2023/06/15 05:03:29;;;;;;;;;;;18.30;63.70;;;;;;8415159;28;20425;-70
2023/06/15 05:07:31;;;;;;;;;;;18.40;64.20;;;;;;8433408;28;19934;-70
2023/06/15 05:11:32;;;;;;;;;;;18.50;64.80;;;;;;8446895;28;20041;-71
2023/06/15 05:15:35;;;;;;;;;;;18.60;64.90;;;;;;8438753;28;19934;-70
2023/06/15 05:19:36;;;;;;;;;;;18.60;66.60;;;;;;8443816;28;19993;-70
2023/06/15 05:23:38;;;;;;;;;;;18.70;66.40;;;;;;8446298;28;19928;-70
2023/06/15 05:27:41;;;;;;;;;;;18.90;66.80;;;;;;8434661;28;19931;-71
2023/06/15 05:31:43;;;;;;;;;;;19.00;67.00;;;;;;8419775;28;19932;-70
2023/06/15 05:35:45;;;;;;;;;;;19.10;67.30;;;;;;8433803;28;19924;-70
2023/06/15 05:39:47;;;;;;;;;;;19.30;67.80;;;;;;8449940;28;19924;-70
2023/06/15 05:43:48;;;;;;;;;;;19.50;67.90;;;;;;8454202;28;19924;-71
2023/06/15 05:47:50;;;;;;;;;;;19.70;68.70;;;;;;8447255;28;19993;-70
2023/06/15 05:51:52;;;;;;;;;;;19.90;68.80;;;;;;8423162;28;20374;-70
2023/06/15 05:55:53;;;;;;;;;;;20.00;68.60;;;;;;8459215;28;19928;-70
2023/06/15 05:59:55;;;;;;;;;;;20.20;68.60;;;;;;8448572;28;20379;-71
2023/06/15 06:03:57;;;;;;;;;;;20.30;69.40;;;;;;8448180;28;19931;-70
2023/06/15 06:07:58;;;;;;;;;;;20.50;69.20;;;;;;8442298;28;19929;-71
2023/06/15 06:12:01;;;;;;;;;;;20.60;69.70;;;;;;8424213;28;20274;-70
2023/06/15 06:16:02;;;;;;;;;;;20.70;69.40;;;;;;8447571;28;19934;-70
2023/06/15 06:20:04;;;;;;;;;;;20.80;69.60;;;;;;8434517;28;19939;-70
2023/06/15 06:24:07;;;;;;;;;;;20.90;69.50;;;;;;8430743;27;19924;-71
2023/06/15 06:28:09;;;;;;;;;;;21.00;70.70;;;;;;8457954;28;20244;-71
2023/06/15 06:32:11;;;;;;;;;;;21.10;70.80;;;;;;8457053;28;19955;-70
2023/06/15 06:36:13;;;;;;;;;;;21.20;70.50;;;;;;8451833;28;19927;-71
2023/06/15 06:40:14;;;;;;;;;;;21.30;70.80;;;;;;8437299;28;19924;-70
2023/06/15 06:44:16;;;;;;;;;;;21.30;70.90;;;;;;8439669;28;19947;-71
2023/06/15 06:48:18;;;;;;;;;;;21.40;70.30;;;;;;8450154;28;20406;-70
2023/06/15 06:52:20;;;;;;;;;;;21.50;70.90;;;;;;8453182;28;19931;-70
2023/06/15 06:56:22;;;;;;;;;;;21.60;70.70;;;;;;8449524;28;19924;-70
2023/06/15 07:00:24;;;;;;;;;;;21.60;69.70;;;;;;8461823;28;20400;-70
2023/06/15 07:04:25;;;;;;;;;;;21.70;70.30;;;;;;8447808;28;19930;-70
2023/06/15 07:08:27;;;;;;;;;;;21.70;71.40;;;;;;8441285;28;19924;-71
2023/06/15 07:12:29;;;;;;;;;;;21.80;71.40;;;;;;8448594;28;19925;-71
2023/06/15 07:16:30;;;;;;;;;;;21.90;72.10;;;;;;8458395;28;20390;-70
2023/06/15 07:20:32;;;;;;;;;;;22.00;72.40;;;;;;8456360;28;19928;-71
2023/06/15 07:24:35;;;;;;;;;;;22.10;72.60;;;;;;8448468;28;19935;-70
2023/06/15 07:28:37;;;;;;;;;;;22.20;72.40;;;;;;8433549;28;19931;-71
2023/06/15 07:32:38;;;;;;;;;;;22.30;72.10;;;;;;8448007;28;20371;-70
2023/06/15 07:36:40;;;;;;;;;;;22.40;70.90;;;;;;8426776;28;19933;-70
2023/06/15 07:40:42;;;;;;;;;;;22.50;71.10;;;;;;8447235;28;20082;-71
2023/06/15 07:44:44;;;;;;;;;;;22.50;70.80;;;;;;8451571;28;19924;-70
2023/06/15 07:48:46;;;;;;;;;;;22.60;71.10;;;;;;8436710;28;19930;-70
2023/06/15 07:52:49;;;;;;;;;;;22.60;70.10;;;;;;8432783;28;19924;-70
2023/06/15 07:56:50;;;;;;;;;;;22.60;70.30;;;;;;8448458;28;19924;-71
2023/06/15 08:00:52;;;;;;;;;;;22.70;72.30;;;;;;8460361;28;19927;-71
2023/06/15 08:04:54;;;;;;;;;;;22.70;71.90;;;;;;8455618;28;19923;-71
2023/06/15 08:08:56;;;;;;;;;;;22.80;71.90;;;;;;8425157;28;20342;-71
2023/06/15 08:12:57;;;;;;;;;;;22.90;71.20;;;;;;8457519;28;19924;-70
2023/06/15 08:16:59;;;;;;;;;;;22.90;71.70;;;;;;8440958;28;19928;-71
2023/06/15 08:21:01;;;;;;;;;;;23.00;71.70;;;;;;8442425;28;19924;-71
2023/06/15 08:25:03;;;;;;;;;;;23.00;71.60;;;;;;8459709;28;20048;-72
2023/06/15 08:29:05;;;;;;;;;;;23.10;71.80;;;;;;8468291;28;19931;-72
2023/06/15 08:33:22;;;;;;;;;;;23.20;71.90;;;;;;8457754;28;19934;-71
2023/06/15 08:37:24;;;;;;;;;;;23.40;72.10;;;;;;8470629;28;19953;-72
2023/06/15 08:41:27;;;;;;;;;;;23.50;71.50;;;;;;8466365;28;19924;-71
2023/06/15 08:45:32;;;;;;;;;;;23.60;71.60;;;;;;8433871;28;19924;-72
2023/06/15 08:49:34;;;;;;;;;;;23.70;71.50;;;;;;8470292;28;19981;-71
2023/06/15 08:53:37;;;;;;;;;;;23.80;70.80;;;;;;8435854;28;20310;-72
2023/06/15 08:57:39;;;;;;;;;;;23.80;70.60;;;;;;8438769;28;20329;-71
2023/06/15 09:01:41;;;;;;;;;;;23.80;70.60;;;;;;8446316;28;19924;-72
2023/06/15 09:05:43;;;;;;;;;;;23.90;70.30;;;;;;8395781;28;19928;-72
2023/06/15 09:10:04;;;;;;;;;;;23.90;70.40;;;;;;8429650;28;19928;-71
2023/06/15 09:14:12;;;;;;;;;;;23.90;70.30;;;;;;8416580;28;19924;-72
2023/06/15 09:18:14;;;;;;;;;;;24.00;70.00;;;;;;8443998;28;20339;-72
2023/06/15 09:22:16;;;;;;;;;;;24.00;70.40;;;;;;8455153;28;20312;-71
2023/06/15 09:26:22;;;;;;;;;;;24.10;70.00;;;;;;8471377;28;19969;-72
2023/06/15 09:30:34;;;;;;;;;;;24.20;70.00;;;;;;8435241;28;19997;-72
2023/06/15 09:34:37;;;;;;;;;;;24.20;70.20;;;;;;8448720;27;19925;-72
2023/06/15 09:38:44;;;;;;;;;;;24.40;70.50;;;;;;8450084;28;19924;-72
2023/06/15 09:42:53;;;;;;;;;;;24.50;70.50;;;;;;8429119;28;20554;-71
2023/06/15 09:46:58;;;;;;;;;;;24.60;70.10;;;;;;8447670;28;19935;-72
2023/06/15 09:51:02;;;;;;;;;;;24.60;69.80;;;;;;8443824;28;20552;-72
2023/06/15 09:55:04;;;;;;;;;;;24.60;69.80;;;;;;8397383;28;19975;-73
2023/06/15 09:59:06;;;;;;;;;;;24.70;69.80;;;;;;8402953;28;19931;-73
2023/06/15 10:03:10;;;;;;;;;;;24.70;69.50;;;;;;8443402;28;19977;-72
2023/06/15 10:07:17;;;;;;;;;;;24.70;69.50;;;;;;8432439;28;19928;-72
2023/06/15 10:11:20;;;;;;;;;;;24.80;68.90;;;;;;8446625;28;19923;-71
2023/06/15 10:15:23;;;;;;;;;;;24.80;69.20;;;;;;8448016;28;19923;-73
2023/06/15 10:19:25;;;;;;;;;;;24.70;68.60;;;;;;8432662;28;19924;-72
2023/06/15 10:23:28;;;;;;;;;;;24.70;68.70;;;;;;8462829;28;20019;-72
2023/06/15 10:27:43;;;;;;;;;;;24.60;68.40;;;;;;8454980;28;19924;-72
2023/06/15 10:31:51;;;;;;;;;;;24.60;68.30;;;;;;8445706;28;19931;-73
2023/06/15 10:35:59;;;;;;;;;;;24.60;68.80;;;;;;8429122;28;20150;-72
2023/06/15 10:40:05;;;;;;;;;;;24.70;68.90;;;;;;8463732;28;19924;-72
2023/06/15 10:44:07;;;;;;;;;;;24.80;68.90;;;;;;8461830;28;19947;-73
2023/06/15 10:48:19;;;;;;;;;;;24.90;68.90;;;;;;8455888;28;20003;-72
2023/06/15 10:52:32;;;;;;;;;;;24.90;68.70;;;;;;8443044;28;19969;-72
2023/06/15 10:56:34;;;;;;;;;;;24.90;68.40;;;;;;8450826;28;19931;-73
2023/06/15 11:00:49;;;;;;;;;;;25.10;69.20;;;;;;8459050;28;19923;-73
2023/06/15 11:04:51;;;;;;;;;;;25.20;69.00;;;;;;8410390;28;19931;-72
2023/06/15 11:08:59;;;;;;;;;;;25.20;68.70;;;;;;8450866;28;20375;-71
2023/06/15 11:13:02;;;;;;;;;;;25.30;67.60;;;;;;8446941;28;20302;-73
2023/06/15 11:17:05;;;;;;;;;;;25.30;68.50;;;;;;8412816;28;19931;-72
2023/06/15 11:21:06;;;;;;;;;;;25.30;68.40;;;;;;8451677;28;19928;-73
2023/06/15 11:25:11;;;;;;;;;;;25.20;67.80;;;;;;8431970;28;19931;-72
2023/06/15 11:29:15;;;;;;;;;;;25.20;68.10;;;;;;8456100;28;19975;-73
2023/06/15 11:33:29;;;;;;;;;;;25.10;68.40;;;;;;8444208;28;19951;-71
2023/06/15 11:37:31;;;;;;;;;;;25.10;67.50;;;;;;8436113;28;19924;-72
2023/06/15 11:41:33;;;;;;;;;;;25.10;67.80;;;;;;8432905;28;19931;-72
2023/06/15 11:45:35;;;;;;;;;;;25.20;67.50;;;;;;8448286;28;19928;-71
2023/06/15 11:49:36;;;;;;;;;;;25.20;67.30;;;;;;8444116;28;19924;-71
2023/06/15 11:53:39;;;;;;;;;;;25.20;67.40;;;;;;8429000;28;19994;-71
2023/06/15 11:57:43;;;;;;;;;;;25.20;67.60;;;;;;8450416;28;19931;-71
2023/06/15 12:01:45;;;;;;;;;;;25.20;67.00;;;;;;8448406;28;19932;-72
2023/06/15 12:05:55;;;;;;;;;;;25.20;67.20;;;;;;8451200;28;20272;-71
2023/06/15 12:09:57;;;;;;;;;;;25.20;67.80;;;;;;8449377;28;19924;-71
2023/06/15 12:13:59;;;;;;;;;;;25.30;67.00;;;;;;8452584;27;20369;-71
2023/06/15 12:18:01;;;;;;;;;;;25.40;67.00;;;;;;8456325;28;19928;-72
2023/06/15 12:22:03;;;;;;;;;;;25.60;66.60;;;;;;8448758;28;20282;-71
2023/06/15 12:26:04;;;;;;;;;;;25.70;66.40;;;;;;8460584;27;19930;-73
2023/06/15 12:30:10;;;;;;;;;;;25.80;66.60;;;;;;8438251;28;19931;-73
2023/06/15 12:34:12;;;;;;;;;;;25.90;67.00;;;;;;8445771;28;19924;-73
2023/06/15 12:38:13;;;;;;;;;;;25.90;66.90;;;;;;8430571;28;19924;-73
2023/06/15 12:42:19;;;;;;;;;;;25.80;66.40;;;;;;8446671;28;21174;-73
2023/06/15 12:46:20;;;;;;;;;;;25.90;66.50;;;;;;8456596;28;19924;-73
2023/06/15 12:50:22;;;;;;;;;;;26.00;66.80;;;;;;8447704;28;19927;-72
2023/06/15 12:54:24;;;;;;;;;;;26.10;66.30;;;;;;8433428;28;19924;-71
2023/06/15 12:58:25;;;;;;;;;;;26.20;67.00;;;;;;8451082;28;19924;-72
2023/06/15 13:02:27;;;;;;;;;;;26.30;66.10;;;;;;8442576;28;19925;-72
2023/06/15 13:06:29;;;;;;;;;;;26.30;65.70;;;;;;8455826;28;19924;-73
2023/06/15 13:10:31;;;;;;;;;;;26.30;65.90;;;;;;8449294;28;19928;-73
2023/06/15 13:14:34;;;;;;;;;;;26.20;65.40;;;;;;8458763;28;19968;-73
2023/06/15 13:18:35;;;;;;;;;;;26.10;64.80;;;;;;8425637;28;20332;-72
2023/06/15 13:22:37;;;;;;;;;;;26.10;64.80;;;;;;8454021;28;19981;-72
2023/06/15 13:26:39;;;;;;;;;;;26.20;64.70;;;;;;8461018;28;19930;-74
2023/06/15 13:30:40;;;;;;;;;;;26.30;65.10;;;;;;8460798;28;19924;-73
2023/06/15 13:34:42;;;;;;;;;;;26.40;64.90;;;;;;8428329;28;19928;-72
2023/06/15 13:38:44;;;;;;;;;;;26.50;64.30;;;;;;8458111;28;20383;-72
2023/06/15 13:42:46;;;;;;;;;;;26.60;64.90;;;;;;8459275;28;20329;-72
2023/06/15 13:46:47;;;;;;;;;;;26.70;64.30;;;;;;8453029;28;19927;-74
2023/06/15 13:50:49;;;;;;;;;;;26.60;64.00;;;;;;8464192;28;19927;-71
2023/06/15 13:54:51;;;;;;;;;;;26.50;63.10;;;;;;8457192;28;19928;-72
2023/06/15 13:58:56;;;;;;;;;;;26.60;63.80;;;;;;8459014;28;19928;-72
2023/06/15 14:03:04;;;;;;;;;;;26.50;62.90;;;;;;8460788;28;20294;-73
2023/06/15 14:07:06;;;;;;;;;;;26.50;63.10;;;;;;8458054;28;19935;-72
2023/06/15 14:11:07;;;;;;;;;;;26.40;60.10;;;;;;8435131;28;20323;-72
2023/06/15 14:15:09;;;;;;;;;;;26.30;62.70;;;;;;8415915;28;19928;-72
2023/06/15 14:19:11;;;;;;;;;;;26.40;62.30;;;;;;8450712;28;20360;-73
2023/06/15 14:23:13;;;;;;;;;;;26.50;62.50;;;;;;8446072;28;19924;-72
2023/06/15 14:27:14;;;;;;;;;;;26.40;62.60;;;;;;8444724;28;19997;-73
2023/06/15 14:31:16;;;;;;;;;;;26.50;62.70;;;;;;8435054;28;19932;-73
2023/06/15 14:35:19;;;;;;;;;;;26.40;62.90;;;;;;8455918;28;20217;-73
2023/06/15 14:39:21;;;;;;;;;;;26.30;62.30;;;;;;8447713;28;19968;-73
2023/06/15 14:43:23;;;;;;;;;;;26.40;63.00;;;;;;8441723;28;19924;-73
2023/06/15 14:47:25;;;;;;;;;;;26.50;62.90;;;;;;8426185;28;19928;-72
2023/06/15 14:51:27;;;;;;;;;;;26.60;62.40;;;;;;8422741;28;20451;-73
2023/06/15 14:55:28;;;;;;;;;;;26.70;62.30;;;;;;8438997;28;20337;-73
2023/06/15 14:59:30;;;;;;;;;;;26.80;62.40;;;;;;8437511;28;19974;-74
2023/06/15 15:03:32;;;;;;;;;;;26.80;62.40;;;;;;8454132;28;19968;-74
2023/06/15 15:07:33;;;;;;;;;;;26.90;62.50;;;;;;8453569;28;20026;-74
2023/06/15 15:11:37;;;;;;;;;;;26.90;62.20;;;;;;8431686;28;19932;-75
2023/06/15 15:15:39;;;;;;;;;;;27.00;62.40;;;;;;8428515;28;19923;-73
2023/06/15 15:19:40;;;;;;;;;;;27.20;62.70;;;;;;8446243;28;19931;-74
2023/06/15 15:23:42;;;;;;;;;;;27.20;62.90;;;;;;8431782;28;19924;-74
2023/06/15 15:27:44;;;;;;;;;;;27.30;62.40;;;;;;8439445;28;19924;-73
2023/06/15 15:31:45;;;;;;;;;;;27.30;62.50;;;;;;8417244;28;19928;-73
2023/06/15 15:35:47;;;;;;;;;;;27.40;62.20;;;;;;8428412;28;19953;-75
2023/06/15 15:39:49;;;;;;;;;;;27.50;62.30;;;;;;8423159;28;19928;-74
2023/06/15 15:43:52;;;;;;;;;;;27.50;63.10;;;;;;8430701;28;20298;-74
2023/06/15 15:53:28;;;;;;;;;;;27.70;62.50;;;;;;8421058;28;19923;-74
2023/06/15 15:57:30;;;;;;;;;;;27.80;62.30;;;;;;8448491;28;20360;-74
2023/06/15 16:01:31;;;;;;;;;;;27.90;61.90;;;;;;8433623;28;19924;-73
2023/06/15 16:05:33;;;;;;;;;;;28.00;61.80;;;;;;8428647;28;19932;-74
2023/06/15 16:09:37;;;;;;;;;;;28.10;62.10;;;;;;8432292;28;19932;-75
2023/06/15 16:13:38;;;;;;;;;;;28.20;61.60;;;;;;8435989;28;19934;-73
2023/06/15 16:17:40;;;;;;;;;;;28.20;62.00;;;;;;8406708;28;20375;-74
2023/06/15 16:21:42;;;;;;;;;;;28.30;61.80;;;;;;8442659;28;19924;-73
2023/06/15 16:25:44;;;;;;;;;;;28.50;62.10;;;;;;8440319;28;20375;-73
2023/06/15 16:29:45;;;;;;;;;;;28.70;63.00;;;;;;8426627;28;19946;-74
2023/06/15 16:33:47;;;;;;;;;;;29.00;64.00;;;;;;8435590;28;20351;-74
2023/06/15 16:37:49;;;;;;;;;;;29.20;65.20;;;;;;8447584;28;19981;-74
2023/06/15 16:41:50;;;;;;;;;;;29.40;66.80;;;;;;8444352;28;19923;-74
2023/06/15 16:45:52;;;;;;;;;;;29.50;66.00;;;;;;8430548;28;19928;-74
2023/06/15 16:49:54;;;;;;;;;;;29.50;67.50;;;;;;8424604;28;19975;-73
2023/06/15 16:53:56;;;;;;;;;;;29.50;68.40;;;;;;8421691;28;19925;-74
2023/06/15 16:57:58;;;;;;;;;;;29.60;69.50;;;;;;8430487;28;20016;-74
2023/06/15 17:02:00;;;;;;;;;;;29.50;68.10;;;;;;8425262;28;19935;-74
2023/06/15 17:06:02;;;;;;;;;;;29.40;68.50;;;;;;8435307;28;19974;-74
2023/06/15 17:10:04;;;;;;;;;;;29.20;68.10;;;;;;8442112;28;19943;-74
2023/06/15 17:14:05;;;;;;;;;;;29.00;67.60;;;;;;8425555;28;19985;-73
2023/06/15 17:18:07;;;;;;;;;;;28.70;66.30;;;;;;8414696;28;19928;-74
2023/06/15 17:22:10;;;;;;;;;;;28.40;64.80;;;;;;8429653;28;19924;-74
2023/06/15 17:26:11;;;;;;;;;;;28.20;63.70;;;;;;8436116;28;19966;-74
2023/06/15 17:30:14;;;;;;;;;;;27.90;62.80;;;;;;8420253;28;19924;-74
2023/06/15 17:34:16;;;;;;;;;;;27.70;62.50;;;;;;8412802;28;20283;-75
2023/06/15 17:38:17;;;;;;;;;;;27.40;61.60;;;;;;8397713;28;19998;-73
2023/06/15 17:42:19;;;;;;;;;;;27.30;61.00;;;;;;8424996;28;19928;-74
2023/06/15 17:46:21;;;;;;;;;;;27.10;60.90;;;;;;8391130;28;19931;-73
2023/06/15 17:50:22;;;;;;;;;;;26.90;60.20;;;;;;8416494;28;19923;-74
2023/06/15 17:54:24;;;;;;;;;;;26.80;59.90;;;;;;8397580;28;19933;-74
2023/06/15 17:58:27;;;;;;;;;;;26.70;59.50;;;;;;8389486;28;19978;-74
2023/06/15 18:02:30;;;;;;;;;;;26.60;59.70;;;;;;8414382;28;19924;-74
2023/06/15 18:06:33;;;;;;;;;;;26.50;59.40;;;;;;8381345;28;19925;-74
2023/06/15 18:10:35;;;;;;;;;;;26.50;59.40;;;;;;8420813;28;19928;-74
2023/06/15 18:14:37;;;;;;;;;;;26.50;59.30;;;;;;8418138;28;19985;-73
2023/06/15 18:18:38;;;;;;;;;;;26.50;59.30;;;;;;8390165;28;19935;-74
2023/06/15 18:22:41;;;;;;;;;;;26.40;59.20;;;;;;8392298;28;19928;-74
2023/06/15 18:26:44;;;;;;;;;;;26.30;59.00;;;;;;8414139;28;20380;-74
2023/06/15 18:30:46;;;;;;;;;;;26.20;58.90;;;;;;8419992;28;19932;-75
2023/06/15 18:34:49;;;;;;;;;;;26.10;58.70;;;;;;8431204;28;19928;-76
2023/06/15 18:38:51;;;;;;;;;;;26.00;58.80;;;;;;8428050;28;20460;-75
2023/06/15 18:42:52;;;;;;;;;;;26.00;58.80;;;;;;8443719;28;19939;-74
2023/06/15 18:46:54;;;;;;;;;;;25.90;58.70;;;;;;8450372;27;20383;-74
2023/06/15 18:50:56;;;;;;;;;;;25.80;58.70;;;;;;8437003;28;19946;-75
2023/06/15 18:54:58;;;;;;;;;;;25.80;58.70;;;;;;8440180;28;19927;-74
2023/06/15 18:58:59;;;;;;;;;;;25.70;58.50;;;;;;8450983;28;19924;-74
2023/06/15 19:03:01;;;;;;;;;;;25.50;58.40;;;;;;8458500;28;19927;-75
2023/06/15 19:07:03;;;;;;;;;;;25.50;58.40;;;;;;8428008;28;19978;-75
2023/06/15 19:11:05;;;;;;;;;;;25.40;58.30;;;;;;8441392;28;19943;-75
2023/06/15 19:15:06;;;;;;;;;;;25.30;58.30;;;;;;8434448;28;19931;-75
2023/06/15 19:19:10;;;;;;;;;;;25.20;58.30;;;;;;8424638;28;19924;-74
2023/06/15 19:23:12;;;;;;;;;;;25.20;58.30;;;;;;8429039;28;19924;-74
2023/06/15 19:27:14;;;;;;;;;;;25.10;58.30;;;;;;8424988;28;19924;-73
2023/06/15 19:31:15;;;;;;;;;;;25.00;58.40;;;;;;8419337;28;20283;-74
2023/06/15 19:35:17;;;;;;;;;;;25.00;58.40;;;;;;8414445;28;19928;-74
2023/06/15 19:39:19;;;;;;;;;;;24.90;58.30;;;;;;8429148;28;20319;-74
2023/06/15 19:43:24;;;;;;;;;;;24.80;58.20;;;;;;8430247;28;19924;-75
2023/06/15 19:47:25;;;;;;;;;;;24.80;58.10;;;;;;8426666;28;19923;-74
2023/06/15 19:51:27;;;;;;;;;;;24.70;58.10;;;;;;8422339;28;20281;-75
2023/06/15 19:55:29;;;;;;;;;;;24.70;58.10;;;;;;8423872;28;20010;-74
2023/06/15 19:59:30;;;;;;;;;;;24.60;58.00;;;;;;8406692;28;20280;-74
2023/06/15 20:03:33;;;;;;;;;;;24.60;58.00;;;;;;8404681;28;19924;-74
2023/06/15 20:07:34;;;;;;;;;;;24.50;57.90;;;;;;8409284;28;19972;-74
2023/06/15 20:11:36;;;;;;;;;;;24.40;57.90;;;;;;8438708;28;19977;-74
2023/06/15 20:15:38;;;;;;;;;;;24.40;58.00;;;;;;8455688;28;19957;-73
2023/06/15 20:19:39;;;;;;;;;;;24.30;57.90;;;;;;8435353;28;19924;-74
2023/06/15 20:23:42;;;;;;;;;;;24.30;57.80;;;;;;8406568;28;20372;-74
2023/06/15 20:27:44;;;;;;;;;;;24.20;57.80;;;;;;8439672;28;20362;-74
2023/06/15 20:31:46;;;;;;;;;;;24.10;57.80;;;;;;8427764;28;19923;-74
2023/06/15 20:35:48;;;;;;;;;;;24.00;57.80;;;;;;8443802;28;19934;-73
2023/06/15 20:39:50;;;;;;;;;;;23.90;57.90;;;;;;8429617;28;19924;-73
2023/06/15 20:43:51;;;;;;;;;;;23.90;57.90;;;;;;8440212;28;19924;-74
2023/06/15 20:47:53;;;;;;;;;;;23.80;57.80;;;;;;8429655;28;19928;-73
2023/06/15 20:51:55;;;;;;;;;;;23.70;57.90;;;;;;8427074;28;20393;-73
2023/06/15 20:55:57;;;;;;;;;;;23.60;57.80;;;;;;8428190;28;19924;-74
2023/06/15 20:59:58;;;;;;;;;;;23.50;57.90;;;;;;8417213;28;19932;-74
2023/06/15 21:04:00;;;;;;;;;;;23.40;58.00;;;;;;8433061;28;20290;-73
2023/06/15 21:08:02;;;;;;;;;;;23.30;58.10;;;;;;8405697;28;19924;-73
2023/06/15 21:12:03;;;;;;;;;;;23.30;58.20;;;;;;8439853;28;20292;-73
2023/06/15 21:16:05;;;;;;;;;;;23.20;58.30;;;;;;8415621;28;19932;-73
2023/06/15 21:20:07;;;;;;;;;;;23.20;58.50;;;;;;8413124;28;19999;-73
2023/06/15 21:24:09;;;;;;;;;;;23.10;58.20;;;;;;8425888;28;19928;-73
2023/06/15 21:28:11;;;;;;;;;;;23.00;58.30;;;;;;8411472;28;19924;-73
2023/06/15 21:32:13;;;;;;;;;;;23.00;58.40;;;;;;8435099;28;19931;-73
2023/06/15 21:36:15;;;;;;;;;;;22.90;58.60;;;;;;8441615;28;20264;-73
2023/06/15 21:40:16;;;;;;;;;;;22.80;58.50;;;;;;8435571;28;19976;-75
2023/06/15 21:44:18;;;;;;;;;;;22.80;58.60;;;;;;8436568;28;19924;-73
2023/06/15 21:48:20;;;;;;;;;;;22.70;58.90;;;;;;8425074;28;19924;-73
2023/06/15 21:52:21;;;;;;;;;;;22.70;59.20;;;;;;8443943;28;19928;-73
2023/06/15 21:56:23;;;;;;;;;;;22.50;59.00;;;;;;8429141;28;19924;-73
2023/06/15 22:00:26;;;;;;;;;;;22.50;59.50;;;;;;8457311;28;19924;-73
2023/06/15 22:04:28;;;;;;;;;;;22.40;59.60;;;;;;8406618;28;20276;-73
2023/06/15 22:08:30;;;;;;;;;;;22.30;59.70;;;;;;8435352;28;19924;-73
2023/06/15 22:12:33;;;;;;;;;;;22.20;59.60;;;;;;8425378;28;19963;-73
2023/06/15 22:16:36;;;;;;;;;;;22.10;60.20;;;;;;8428808;28;19928;-73
2023/06/15 22:20:39;;;;;;;;;;;21.90;59.70;;;;;;8415582;28;19928;-73
2023/06/15 22:24:41;;;;;;;;;;;21.70;60.00;;;;;;8413892;28;19924;-73
2023/06/15 22:28:43;;;;;;;;;;;21.60;59.80;;;;;;8430290;28;19924;-73
2023/06/15 22:32:52;;;;;;;;;;;21.50;60.00;;;;;;8414334;28;19928;-73
2023/06/15 22:36:54;;;;;;;;;;;21.30;59.80;;;;;;8398411;28;20329;-73
2023/06/15 22:40:56;;;;;;;;;;;21.20;60.20;;;;;;8435655;28;20408;-73
2023/06/15 22:44:57;;;;;;;;;;;21.20;60.20;;;;;;8433048;28;19935;-73
2023/06/15 22:48:59;;;;;;;;;;;21.20;60.40;;;;;;8422109;28;20202;-73
2023/06/15 22:53:02;;;;;;;;;;;21.20;60.90;;;;;;8402475;28;19971;-73
2023/06/15 22:57:04;;;;;;;;;;;21.10;60.50;;;;;;8418736;28;19928;-73
2023/06/15 23:01:06;;;;;;;;;;;21.10;60.60;;;;;;8456550;28;20304;-73
2023/06/15 23:05:08;;;;;;;;;;;21.10;60.90;;;;;;8409357;28;20414;-73
2023/06/15 23:09:10;;;;;;;;;;;21.10;61.10;;;;;;8406061;28;19927;-73
2023/06/15 23:13:12;;;;;;;;;;;21.10;60.90;;;;;;8440083;28;19928;-73
2023/06/15 23:17:14;;;;;;;;;;;21.10;61.20;;;;;;8445214;28;19923;-73
2023/06/15 23:21:21;;;;;;;;;;;21.00;61.10;;;;;;8454395;28;19923;-72
2023/06/15 23:25:22;;;;;;;;;;;21.00;61.20;;;;;;8434447;28;19924;-73
2023/06/15 23:29:25;;;;;;;;;;;21.00;60.80;;;;;;8437639;28;19969;-73
2023/06/15 23:33:26;;;;;;;;;;;20.90;60.70;;;;;;8427320;28;19924;-73